createdAt,value
2023-01-25T00:01:19.176Z,0.30
2023-01-25T00:06:21.108Z,0.30
2023-01-25T00:11:23.204Z,0.30
2023-01-25T00:16:25.282Z,0.30
2023-01-25T00:21:27.525Z,0.30
2023-01-25T00:26:34.852Z,0.30
2023-01-25T00:31:40.933Z,0.30
2023-01-25T00:36:45.248Z,0.40
2023-01-25T00:41:47.125Z,0.30
2023-01-25T00:46:49.318Z,0.30
2023-01-25T00:51:52.489Z,0.30
2023-01-25T00:56:56.579Z,0.40
2023-01-25T01:01:58.956Z,0.40
2023-01-25T01:07:00.959Z,0.40
2023-01-25T01:12:02.954Z,0.40
2023-01-25T01:17:06.138Z,0.50
2023-01-25T01:22:08.169Z,0.60
2023-01-25T01:27:10.118Z,0.50
2023-01-25T01:32:12.864Z,0.50
2023-01-25T01:37:15.032Z,0.40
2023-01-25T01:42:16.927Z,0.50
2023-01-25T01:47:25.689Z,0.40
2023-01-25T01:52:36.048Z,0.50
2023-01-25T01:57:51.716Z,0.30
2023-01-25T02:02:55.592Z,0.20
2023-01-25T02:07:58.840Z,0.20
2023-01-25T02:13:01.620Z,0.20
2023-01-25T02:18:04.001Z,0.30
2023-01-25T02:23:27.749Z,0.20
2023-01-25T02:28:36.302Z,0.30
2023-01-25T02:33:38.245Z,0.20
2023-01-25T02:38:45.577Z,0.20
2023-01-25T02:43:47.928Z,0.10
2023-01-25T02:48:49.970Z,0.10
2023-01-25T02:53:52.499Z,0.20
2023-01-25T02:58:55.943Z,0.10
2023-01-25T03:03:57.987Z,0.10
2023-01-25T03:09:00.657Z,0.20
2023-01-25T03:14:03.345Z,0.10
2023-01-25T03:19:05.768Z,0.20
2023-01-25T03:24:09.933Z,0.10
2023-01-25T03:29:16.565Z,0.10
2023-01-25T03:34:21.827Z,0.10
2023-01-25T03:39:23.851Z,0.10
2023-01-25T03:44:25.968Z,0.10
2023-01-25T03:49:28.093Z,0.10
2023-01-25T03:54:30.301Z,0.10
2023-01-25T03:59:32.581Z,0.10
2023-01-25T04:04:35.784Z,0.20
2023-01-25T04:09:38.795Z,0.10
2023-01-25T04:14:44.588Z,0.20
2023-01-25T04:19:53.024Z,0.20
2023-01-25T04:24:59.495Z,0.20
2023-01-25T04:30:01.710Z,0.30
2023-01-25T04:35:06.098Z,0.20
2023-01-25T04:40:09.920Z,0.30
2023-01-25T04:45:18.131Z,0.20
2023-01-25T04:50:20.189Z,0.20
2023-01-25T04:55:22.892Z,0.30
2023-01-25T05:00:27.990Z,0.40
2023-01-25T05:05:30.660Z,0.40
2023-01-25T05:10:34.758Z,0.30
2023-01-25T05:15:57.868Z,0.20
2023-01-25T05:20:59.844Z,0.20
2023-01-25T05:26:21.870Z,0.20
2023-01-25T05:31:24.033Z,0.20
2023-01-25T05:36:26.296Z,0.20
2023-01-25T05:41:28.288Z,0.30
2023-01-25T05:46:31.196Z,0.40
2023-01-25T05:51:33.659Z,0.40
2023-01-25T05:56:36.930Z,0.30
2023-01-25T06:01:39.524Z,0.40
2023-01-25T06:06:42.024Z,0.50
2023-01-25T06:11:45.258Z,0.30
2023-01-25T06:16:48.522Z,0.20
2023-01-25T06:22:08.108Z,0.20
2023-01-25T06:27:10.961Z,0.30
2023-01-25T06:32:12.913Z,0.10
2023-01-25T06:37:14.928Z,0.20
2023-01-25T06:42:16.821Z,0.00
2023-01-25T06:47:18.716Z,0.00
2023-01-25T06:52:20.590Z,0.00
2023-01-25T06:57:22.477Z,0.00
2023-01-25T07:02:24.495Z,0.00
2023-01-25T07:07:26.388Z,0.00
2023-01-25T07:12:31.812Z,0.10
2023-01-25T07:17:33.775Z,0.10
2023-01-25T07:23:08.021Z,0.00
2023-01-25T07:28:09.918Z,0.10
2023-01-25T07:33:12.000Z,0.30
2023-01-25T07:38:14.761Z,0.30
2023-01-25T07:43:16.846Z,0.20
2023-01-25T07:48:20.140Z,0.10
2023-01-25T07:53:23.536Z,0.10
2023-01-25T07:58:26.532Z,0.20
2023-01-25T08:03:29.822Z,0.30
2023-01-25T08:08:40.798Z,0.30
2023-01-25T08:13:46.694Z,0.50
2023-01-25T08:18:51.843Z,0.60
2023-01-25T08:23:54.908Z,0.50
2023-01-25T08:28:58.353Z,0.40
2023-01-25T08:34:05.983Z,0.40
2023-01-25T08:39:12.567Z,0.30
2023-01-25T08:44:23.023Z,0.40
2023-01-25T08:49:31.547Z,0.30
2023-01-25T08:54:35.477Z,0.50
2023-01-25T08:59:42.076Z,0.70
2023-01-25T09:04:45.565Z,0.90
2023-01-25T09:09:48.900Z,1.10
2023-01-25T09:14:52.529Z,1.10
2023-01-25T09:19:56.235Z,0.90
2023-01-25T09:25:00.047Z,1.10
2023-01-25T09:30:04.392Z,1.20
2023-01-25T09:35:07.804Z,1.10
2023-01-25T09:40:38.957Z,1.20
2023-01-25T09:45:45.439Z,1.20
2023-01-25T09:51:02.253Z,1.30
2023-01-25T09:56:34.655Z,1.30
2023-01-25T10:01:52.911Z,1.40
2023-01-25T10:07:21.121Z,1.50
2023-01-25T10:12:26.288Z,1.70
2023-01-25T10:17:40.957Z,1.60
2023-01-25T10:23:08.498Z,1.50
2023-01-25T10:28:30.085Z,1.50
2023-01-25T10:33:40.459Z,1.50
2023-01-25T10:38:49.968Z,1.70
2023-01-25T10:44:13.366Z,1.80
2023-01-25T10:49:25.139Z,1.80
2023-01-25T10:54:30.250Z,2.10
2023-01-25T10:59:33.823Z,2.00
2023-01-25T11:04:37.436Z,1.80
2023-01-25T11:09:40.662Z,1.60
2023-01-25T11:14:43.751Z,1.60
2023-01-25T11:19:47.676Z,1.60
2023-01-25T11:24:50.781Z,1.70
2023-01-25T11:30:06.429Z,1.80
2023-01-25T11:35:20.766Z,1.80
2023-01-25T11:40:53.146Z,2.00
2023-01-25T11:46:03.224Z,1.80
2023-01-25T11:51:34.375Z,1.80
2023-01-25T11:56:51.327Z,1.70
2023-01-25T12:02:10.275Z,1.60
2023-01-25T12:07:40.875Z,1.70
2023-01-25T12:12:52.945Z,1.70
2023-01-25T12:18:29.036Z,1.70
2023-01-25T12:23:49.755Z,1.60
2023-01-25T12:29:22.099Z,1.60
2023-01-25T12:34:37.547Z,1.50
2023-01-25T12:40:09.316Z,1.50
2023-01-25T12:45:19.436Z,1.50
2023-01-25T12:50:41.625Z,1.60
2023-01-25T12:55:44.459Z,1.60
2023-01-25T13:01:07.729Z,1.80
2023-01-25T13:06:44.764Z,1.60
2023-01-25T13:11:48.527Z,1.60
2023-01-25T13:17:09.046Z,1.60
2023-01-25T13:22:12.929Z,1.60
2023-01-25T13:27:29.655Z,1.50
2023-01-25T13:32:31.510Z,1.50
2023-01-25T13:37:35.830Z,1.40
2023-01-25T13:42:39.600Z,1.30
2023-01-25T13:47:43.982Z,1.30
2023-01-25T13:53:00.516Z,1.30
2023-01-25T13:58:29.445Z,1.40
2023-01-25T14:03:35.662Z,1.30
2023-01-25T14:08:37.876Z,1.20
2023-01-25T14:14:02.528Z,1.20
2023-01-25T14:19:29.008Z,1.20
2023-01-25T14:24:30.936Z,1.10
2023-01-25T14:29:36.181Z,1.10
2023-01-25T14:34:38.190Z,1.10
2023-01-25T14:39:40.186Z,1.10
2023-01-25T14:44:42.716Z,1.20
2023-01-25T14:49:44.690Z,0.90
2023-01-25T14:54:56.266Z,0.90
2023-01-25T14:59:59.499Z,0.90
2023-01-25T15:05:21.240Z,0.90
2023-01-25T15:10:33.223Z,0.80
2023-01-25T15:15:36.370Z,0.80
2023-01-25T15:20:43.572Z,0.80
2023-01-25T15:25:50.759Z,0.70
2023-01-25T15:30:53.112Z,0.70
2023-01-25T15:35:56.060Z,0.70
2023-01-25T15:41:01.442Z,0.70
2023-01-25T15:46:05.914Z,0.70
2023-01-25T15:51:08.287Z,0.70
2023-01-25T15:56:24.956Z,0.60
2023-01-25T16:01:29.877Z,0.60
2023-01-25T16:06:33.862Z,0.70
2023-01-25T16:11:35.795Z,0.60
2023-01-25T16:16:41.514Z,0.60
2023-01-25T16:21:43.856Z,0.50
2023-01-25T16:26:56.950Z,0.50
2023-01-25T16:31:58.988Z,0.50
2023-01-25T16:37:01.760Z,0.50
2023-01-25T16:42:03.695Z,0.50
2023-01-25T16:47:05.838Z,0.40
2023-01-25T16:52:08.007Z,0.40
2023-01-25T16:57:19.803Z,0.50
2023-01-25T17:02:22.576Z,0.40
2023-01-25T17:07:24.575Z,0.40
2023-01-25T17:12:26.495Z,0.40
2023-01-25T17:17:30.148Z,0.40
2023-01-25T17:22:37.608Z,0.30
2023-01-25T17:27:39.881Z,0.40
2023-01-25T17:32:41.924Z,0.30
2023-01-25T17:37:43.873Z,0.30
2023-01-25T17:42:45.755Z,0.30
2023-01-25T17:47:47.679Z,0.30
2023-01-25T17:52:49.965Z,0.30
2023-01-25T17:57:51.946Z,0.30
2023-01-25T18:02:54.763Z,0.20
2023-01-25T18:07:56.768Z,0.40
2023-01-25T18:13:04.524Z,0.30
2023-01-25T18:18:08.298Z,0.30
2023-01-25T18:23:10.107Z,0.30
2023-01-25T18:28:13.956Z,0.40
2023-01-25T18:33:15.855Z,0.30
2023-01-25T18:38:18.027Z,0.30
2023-01-25T18:43:20.188Z,0.30
2023-01-25T18:48:30.297Z,0.30
2023-01-25T18:53:34.209Z,0.20
2023-01-25T18:58:37.441Z,0.30
2023-01-25T19:03:39.787Z,0.30
2023-01-25T19:08:44.102Z,0.20
2023-01-25T19:13:46.442Z,0.20
2023-01-25T19:18:52.168Z,0.10
2023-01-25T19:23:58.011Z,0.20
2023-01-25T19:28:59.970Z,0.10
2023-01-25T19:34:04.655Z,0.10
2023-01-25T19:39:10.301Z,0.00
2023-01-25T19:44:13.866Z,0.10
2023-01-25T19:49:15.963Z,0.00
2023-01-25T19:54:18.556Z,0.10
2023-01-25T19:59:23.397Z,0.00
2023-01-25T20:04:25.344Z,-0.10
2023-01-25T20:09:28.666Z,-0.10
2023-01-25T20:14:30.492Z,-0.20
2023-01-25T20:19:35.082Z,-0.10
2023-01-25T20:24:36.991Z,-0.10
2023-01-25T20:29:39.897Z,-0.10
2023-01-25T20:34:42.745Z,-0.10
2023-01-25T20:39:44.645Z,-0.10
2023-01-25T20:44:46.549Z,-0.10
2023-01-25T20:49:48.931Z,-0.10
2023-01-25T20:54:52.308Z,0.00
2023-01-25T20:59:55.096Z,0.00
2023-01-25T21:04:56.995Z,-0.10
2023-01-25T21:09:58.996Z,-0.20
2023-01-25T21:15:00.901Z,-0.20
2023-01-25T21:20:03.438Z,-0.20
2023-01-25T21:25:05.508Z,-0.20
2023-01-25T21:30:09.610Z,-0.20
2023-01-25T21:35:11.788Z,-0.20
2023-01-25T21:40:14.663Z,-0.20
2023-01-25T21:45:35.056Z,-0.30
2023-01-25T21:50:58.579Z,-0.20
2023-01-25T21:56:00.480Z,-0.20
2023-01-25T22:01:03.891Z,-0.20
2023-01-25T22:06:06.561Z,-0.10
2023-01-25T22:11:10.695Z,-0.10
2023-01-25T22:16:13.246Z,-0.30
2023-01-25T22:21:28.707Z,-0.30
2023-01-25T22:26:39.274Z,-0.20
2023-01-25T22:31:41.483Z,-0.30
2023-01-25T22:36:43.447Z,-0.30
2023-01-25T22:41:45.377Z,-0.30
2023-01-25T22:46:48.551Z,-0.40
2023-01-25T22:51:50.471Z,-0.30
2023-01-25T22:56:52.375Z,-0.30
2023-01-25T23:01:54.267Z,-0.40
2023-01-25T23:07:02.736Z,-0.40
2023-01-25T23:12:05.069Z,-0.40
2023-01-25T23:17:25.560Z,-0.50
2023-01-25T23:22:27.860Z,-0.40
2023-01-25T23:27:29.856Z,-0.50
2023-01-25T23:32:31.733Z,-0.50
2023-01-25T23:37:33.698Z,-0.50
2023-01-25T23:42:36.037Z,-0.60
2023-01-25T23:47:38.670Z,-0.50
2023-01-25T23:52:40.593Z,-0.50
2023-01-25T23:57:42.505Z,-0.60
